Map

Track Data

SID SEASON NUMBER BASIN SUBBASIN NAME ISO_TIME NATURE LAT LON WMO_WIND WMO_PRES WMO_AGENCY TRACK_TYPE DIST2LAND LANDFALL IFLAG USA_AGENCY USA_ATCF_ID USA_LAT USA_LON USA_RECORD USA_STATUS USA_WIND USA_PRES USA_SSHS USA_R34_NE USA_R34_SE USA_R34_SW USA_R34_NW USA_R50_NE USA_R50_SE USA_R50_SW USA_R50_NW USA_R64_NE USA_R64_SE USA_R64_SW USA_R64_NW USA_POCI USA_ROCI USA_RMW USA_EYE TOKYO_LAT TOKYO_LON TOKYO_GRADE TOKYO_WIND TOKYO_PRES TOKYO_R50_DIR TOKYO_R50_LONG TOKYO_R50_SHORT TOKYO_R30_DIR TOKYO_R30_LONG TOKYO_R30_SHORT TOKYO_LAND CMA_LAT CMA_LON CMA_CAT CMA_WIND CMA_PRES HKO_LAT HKO_LON HKO_CAT HKO_WIND HKO_PRES NEWDELHI_LAT NEWDELHI_LON NEWDELHI_GRADE NEWDELHI_WIND NEWDELHI_PRES NEWDELHI_CI NEWDELHI_DP NEWDELHI_POCI REUNION_LAT REUNION_LON REUNION_TYPE REUNION_WIND REUNION_PRES REUNION_TNUM REUNION_CI REUNION_RMW REUNION_R34_NE REUNION_R34_SE REUNION_R34_SW REUNION_R34_NW REUNION_R50_NE REUNION_R50_SE REUNION_R50_SW REUNION_R50_NW REUNION_R64_NE REUNION_R64_SE REUNION_R64_SW REUNION_R64_NW BOM_LAT BOM_LON BOM_TYPE BOM_WIND BOM_PRES BOM_TNUM BOM_CI BOM_RMW BOM_R34_NE BOM_R34_SE BOM_R34_SW BOM_R34_NW BOM_R50_NE BOM_R50_SE BOM_R50_SW BOM_R50_NW BOM_R64_NE BOM_R64_SE BOM_R64_SW BOM_R64_NW BOM_ROCI BOM_POCI BOM_EYE BOM_POS_METHOD BOM_PRES_METHOD NADI_LAT NADI_LON NADI_CAT NADI_WIND NADI_PRES WELLINGTON_LAT WELLINGTON_LON WELLINGTON_WIND WELLINGTON_PRES DS824_LAT DS824_LON DS824_STAGE DS824_WIND DS824_PRES TD9636_LAT TD9636_LON TD9636_STAGE TD9636_WIND TD9636_PRES TD9635_LAT TD9635_LON TD9635_WIND TD9635_PRES TD9635_ROCI NEUMANN_LAT NEUMANN_LON NEUMANN_CLASS NEUMANN_WIND NEUMANN_PRES MLC_LAT MLC_LON MLC_CLASS MLC_WIND MLC_PRES USA_GUST BOM_GUST BOM_GUST_PER REUNION_GUST REUNION_GUST_PER USA_SEAHGT USA_SEARAD_NE USA_SEARAD_SE USA_SEARAD_SW USA_SEARAD_NW STORM_SPEED STORM_DIR
1985299N25270 1985 108 NA GM JUAN 1985-10-26 00:00:00 TS 24.5000 -90.5000 30 1005 hurdat_atl main 373 366 O_____________ hurdat_atl AL121985 24.5000 -90.5000 TD 30 1005 -1 9 255
1985299N25270 1985 108 NA GM JUAN 1985-10-26 03:00:00 TS 24.3851 -90.9822 main 375 364 P_____________ AL121985 24.3851 -90.9822 TD 30 1003 -1 10 252
1985299N25270 1985 108 NA GM JUAN 1985-10-26 06:00:00 TS 24.2000 -91.5000 30 1002 hurdat_atl main 367 358 O_____________ hurdat_atl AL121985 24.2000 -91.5000 TD 30 1002 -1 11 245
1985299N25270 1985 108 NA GM JUAN 1985-10-26 09:00:00 TS 23.9327 -92.0531 main 363 359 P_____________ AL121985 23.9327 -92.0531 TD 32 1000 -1 10 246
1985299N25270 1985 108 NA GM JUAN 1985-10-26 12:00:00 TS 23.8000 -92.5000 35 999 hurdat_atl main 377 377 O_____________ hurdat_atl AL121985 23.8000 -92.5000 TS 35 999 0 7 280
1985299N25270 1985 108 NA GM JUAN 1985-10-26 15:00:00 TS 24.0546 -92.7843 main 422 422 P_____________ AL121985 24.0546 -92.7843 TS 37 997 0 7 335
1985299N25270 1985 108 NA GM JUAN 1985-10-26 18:00:00 TS 24.4000 -92.8000 40 996 hurdat_atl main 449 436 O_____________ hurdat_atl AL121985 24.4000 -92.8000 TS 40 996 0 6 38
1985299N25270 1985 108 NA GM JUAN 1985-10-26 21:00:00 TS 24.4931 -92.4077 main 436 422 P_____________ AL121985 24.4931 -92.4077 TS 42 994 0 8 75
1985299N25270 1985 108 NA GM JUAN 1985-10-27 00:00:00 TS 24.6000 -92.0000 45 993 hurdat_atl main 428 428 O_____________ hurdat_atl AL121985 24.6000 -92.0000 TS 45 993 0 5 33
1985299N25270 1985 108 NA GM JUAN 1985-10-27 03:00:00 TS 24.9348 -92.0917 main 462 443 P_____________ AL121985 24.9348 -92.0917 TS 47 991 0 7 345
1985299N25270 1985 108 NA GM JUAN 1985-10-27 06:00:00 TS 25.3000 -92.2000 50 990 hurdat_atl main 443 413 O_____________ hurdat_atl AL121985 25.3000 -92.2000 TS 50 990 0 6 17
1985299N25270 1985 108 NA GM JUAN 1985-10-27 09:00:00 TS 25.5003 -91.8952 main 413 384 P_____________ AL121985 25.5003 -91.8952 TS 52 988 0 7 58
1985299N25270 1985 108 NA GM JUAN 1985-10-27 12:00:00 TS 25.7000 -91.5000 55 986 hurdat_atl main 384 348 O_____________ hurdat_atl AL121985 25.7000 -91.5000 TS 55 986 0 8 51
1985299N25270 1985 108 NA GM JUAN 1985-10-27 15:00:00 TS 25.9749 -91.2402 main 347 302 P_____________ AL121985 25.9749 -91.2402 TS 57 985 0 8 27
1985299N25270 1985 108 NA GM JUAN 1985-10-27 18:00:00 TS 26.4000 -91.1000 60 984 hurdat_atl main 302 224 O_____________ hurdat_atl AL121985 26.4000 -91.1000 TS 60 984 0 11 6
1985299N25270 1985 108 NA GM JUAN 1985-10-27 21:00:00 TS 27.0924 -91.0972 main 224 148 P_____________ AL121985 27.0924 -91.0972 TS 62 983 0 14 356
1985299N25270 1985 108 NA GM JUAN 1985-10-28 00:00:00 TS 27.8000 -91.2000 65 982 hurdat_atl main 148 107 O_____________ hurdat_atl AL121985 27.8000 -91.2000 HU 65 982 1 12 350
1985299N25270 1985 108 NA GM JUAN 1985-10-28 03:00:00 TS 28.2449 -91.3202 main 107 77 P_____________ AL121985 28.2449 -91.3202 HU 67 978 1 8 342
1985299N25270 1985 108 NA GM JUAN 1985-10-28 06:00:00 TS 28.6000 -91.5000 70 975 hurdat_atl main 77 53 O_____________ hurdat_atl AL121985 28.6000 -91.5000 HU 70 975 1 9 338
1985299N25270 1985 108 NA GM JUAN 1985-10-28 09:00:00 TS 29.0672 -91.6971 main 45 24 P_____________ AL121985 29.0672 -91.6971 HU 72 973 1 9 331
1985299N25270 1985 108 NA GM JUAN 1985-10-28 12:00:00 TS 29.4000 -92.0000 75 972 hurdat_atl main 24 0 O_____________ hurdat_atl AL121985 29.4000 -92.0000 HU 75 972 1 9 296
1985299N25270 1985 108 NA GM JUAN 1985-10-28 15:00:00 TS 29.4408 -92.5759 main 22 22 P_____________ AL121985 29.4408 -92.5759 HU 75 971 1 9 263
1985299N25270 1985 108 NA GM JUAN 1985-10-28 18:00:00 TS 29.3000 -93.0000 75 971 hurdat_atl main 45 45 O_____________ hurdat_atl AL121985 29.3000 -93.0000 HU 75 971 1 4 216
1985299N25270 1985 108 NA GM JUAN 1985-10-28 21:00:00 TS 29.0849 -92.8693 main 62 59 P_____________ AL121985 29.0849 -92.8693 HU 75 972 1 6 132
1985299N25270 1985 108 NA GM JUAN 1985-10-29 00:00:00 TS 28.9000 -92.5000 75 973 hurdat_atl main 69 66 O_____________ hurdat_atl AL121985 28.9000 -92.5000 HU 75 973 1 6 110
1985299N25270 1985 108 NA GM JUAN 1985-10-29 03:00:00 TS 28.8722 -92.2073 main 67 62 P_____________ AL121985 28.8722 -92.2073 HU 72 974 1 5 79
1985299N25270 1985 108 NA GM JUAN 1985-10-29 06:00:00 TS 29.0000 -91.9000 70 975 hurdat_atl main 62 22 O_____________ hurdat_atl AL121985 29.0000 -91.9000 HU 70 975 1 7 52
1985299N25270 1985 108 NA GM JUAN 1985-10-29 09:00:00 TS 29.2816 -91.6001 main 22 0 P_____________ AL121985 29.2816 -91.6001 HU 67 974 1 8 41
1985299N25270 1985 108 NA GM JUAN 1985-10-29 11:00:00 TS 29.5000 -91.4000 65 974 hurdat_atl main 0 0 O_____________ hurdat_atl AL121985 29.5000 -91.4000 L HU 65 974 1 8 40
1985299N25270 1985 108 NA NA JUAN 1985-10-29 12:00:00 TS 29.6000 -91.3000 65 974 hurdat_atl main 0 0 O_____________ hurdat_atl AL121985 29.6000 -91.3000 HU 65 974 1 7 355
1985299N25270 1985 108 NA NA JUAN 1985-10-29 15:00:00 TS 29.9908 -91.4488 main 0 0 P_____________ AL121985 29.9908 -91.4488 HU 62 976 0 9 323
1985299N25270 1985 108 NA NA JUAN 1985-10-29 18:00:00 TS 30.3000 -91.9000 60 978 hurdat_atl main 0 0 O_____________ hurdat_atl AL121985 30.3000 -91.9000 TS 60 978 0 7 295
1985299N25270 1985 108 NA NA JUAN 1985-10-29 21:00:00 TS 30.2750 -92.1531 main 0 0 P_____________ AL121985 30.2750 -92.1531 TS 60 979 0 4 240
1985299N25270 1985 108 NA NA JUAN 1985-10-30 00:00:00 TS 30.1000 -92.3000 60 980 hurdat_atl main 0 0 O_____________ hurdat_atl AL121985 30.1000 -92.3000 TS 60 980 0 3 200
1985299N25270 1985 108 NA NA JUAN 1985-10-30 03:00:00 TS 29.9500 -92.2874 main 0 0 P_____________ AL121985 29.9500 -92.2874 TS 57 981 0 3 164
1985299N25270 1985 108 NA NA JUAN 1985-10-30 06:00:00 TS 29.8000 -92.2000 55 982 hurdat_atl main 0 0 O_____________ hurdat_atl AL121985 29.8000 -92.2000 TS 55 982 0 3 157
1985299N25270 1985 108 NA GM JUAN 1985-10-30 09:00:00 TS 29.7000 -92.1651 main 0 0 P_____________ AL121985 29.7000 -92.1651 TS 55 982 0 2 155
1985299N25270 1985 108 NA GM JUAN 1985-10-30 12:00:00 TS 29.6000 -92.1000 55 982 hurdat_atl main 0 0 O_____________ hurdat_atl AL121985 29.6000 -92.1000 TS 55 982 0 3 147
1985299N25270 1985 108 NA GM JUAN 1985-10-30 15:00:00 TS 29.4500 -91.9800 main 24 24 P_____________ AL121985 29.4500 -91.9800 TS 55 982 0 4 139
1985299N25270 1985 108 NA GM JUAN 1985-10-30 18:00:00 TS 29.3000 -91.8000 55 982 hurdat_atl main 29 24 O_____________ hurdat_atl AL121985 29.3000 -91.8000 TS 55 982 0 4 128
1985299N25270 1985 108 NA GM JUAN 1985-10-30 21:00:00 TS 29.1922 -91.6027 main 33 22 P_____________ AL121985 29.1922 -91.6027 TS 55 982 0 5 115
1985299N25270 1985 108 NA GM JUAN 1985-10-31 00:00:00 TS 29.1000 -91.3000 55 982 hurdat_atl main 22 11 O_____________ hurdat_atl AL121985 29.1000 -91.3000 TS 55 982 0 7 110
1985299N25270 1985 108 NA GM JUAN 1985-10-31 03:00:00 TS 28.9550 -90.8518 main 11 11 P_____________ AL121985 28.9550 -90.8518 TS 55 981 0 9 103
1985299N25270 1985 108 NA GM JUAN 1985-10-31 06:00:00 TS 28.9000 -90.3000 55 980 hurdat_atl main 24 22 O_____________ hurdat_atl AL121985 28.9000 -90.3000 TS 55 980 0 10 87
1985299N25270 1985 108 NA GM JUAN 1985-10-31 09:00:00 TS 29.0097 -89.7295 main 31 0 P_____________ AL121985 29.0097 -89.7295 TS 57 979 0 11 69
1985299N25270 1985 108 NA GM JUAN 1985-10-31 12:00:00 TS 29.3000 -89.1000 60 978 hurdat_atl main 9 9 O_____________ hurdat_atl AL121985 29.3000 -89.1000 TS 60 978 0 14 59
1985299N25270 1985 108 NA GM JUAN 1985-10-31 15:00:00 TS 29.7181 -88.3631 main 67 0 P_____________ AL121985 29.7181 -88.3631 TS 57 980 0 16 51
1985299N25270 1985 108 NA NA JUAN 1985-10-31 18:00:00 TS 30.3000 -87.7000 55 982 hurdat_atl main 0 0 O_____________ hurdat_atl AL121985 30.3000 -87.7000 TS 55 982 0 16 36
1985299N25270 1985 108 NA NA JUAN 1985-10-31 21:00:00 TS 30.9970 -87.2671 main 0 0 P_____________ AL121985 30.9970 -87.2671 TS 47 983 0 16 22
1985299N25270 1985 108 NA NA JUAN 1985-11-01 00:00:00 TS 31.8000 -87.0000 40 984 hurdat_atl main 0 0 O_____________ hurdat_atl AL121985 31.8000 -87.0000 TS 40 984 0 17 14
1985299N25270 1985 108 NA NA JUAN 1985-11-01 03:00:00 TS 32.6349 -86.8045 main 0 0 P_____________ AL121985 32.6349 -86.8045 TS 37 985 0 17 8
1985299N25270 1985 108 NA NA JUAN 1985-11-01 06:00:00 TS 33.5000 -86.7000 35 986 hurdat_atl main 0 0 O_____________ hurdat_atl AL121985 33.5000 -86.7000 TS 35 986 0 17 6
1985299N25270 1985 108 NA NA JUAN 1985-11-01 09:00:00 TS 34.3574 -86.5908 main 0 0 P_____________ AL121985 34.3574 -86.5908 TS 32 987 -1 17 3
1985299N25270 1985 108 NA NA JUAN 1985-11-01 12:00:00 ET 35.2000 -86.6000 30 989 hurdat_atl main 0 0 O_____________ hurdat_atl AL121985 35.2000 -86.6000 EX 30 989 -4 17 354
1985299N25270 1985 108 NA NA JUAN 1985-11-01 15:00:00 ET 36.0103 -86.7930 main 0 0 P_____________ AL121985 36.0103 -86.7930 EX 27 990 -4 17 346
1985299N25270 1985 108 NA NA JUAN 1985-11-01 18:00:00 ET 36.8000 -87.1000 25 992 hurdat_atl main 0 O_____________ hurdat_atl AL121985 36.8000 -87.1000 EX 25 992 -4 17 343

About IBTrACS Database

This database is a web-friendly format of International Best Track Archive for Climate Stewardship (IBTrACS), a global best track data archive curated by NOAA dating back to 1842.

Updated: 2021-10-08